sensor_id;sensor_type;location;lat;lon;timestamp;temperature;humidity
33023;DHT22;19390;51.460;5.710;2024-02-26T00:01:39;6.40;99.90
33023;DHT22;19390;51.460;5.710;2024-02-26T00:04:05;6.50;99.90
33023;DHT22;19390;51.460;5.710;2024-02-26T00:06:31;6.40;99.90
33023;DHT22;19390;51.460;5.710;2024-02-26T00:08:57;6.50;99.90
33023;DHT22;19390;51.460;5.710;2024-02-26T00:11:22;6.50;99.90
33023;DHT22;19390;51.460;5.710;2024-02-26T00:13:48;6.50;99.90
33023;DHT22;19390;51.460;5.710;2024-02-26T00:16:14;6.40;99.90
33023;DHT22;19390;51.460;5.710;2024-02-26T00:18:39;6.40;99.90
33023;DHT22;19390;51.460;5.710;2024-02-26T00:21:05;6.40;99.90
33023;DHT22;19390;51.460;5.710;2024-02-26T00:23:31;6.30;99.90
33023;DHT22;19390;51.460;5.710;2024-02-26T00:25:57;6.40;99.90
33023;DHT22;19390;51.460;5.710;2024-02-26T00:28:23;6.40;99.90
33023;DHT22;19390;51.460;5.710;2024-02-26T00:30:50;6.40;99.90
33023;DHT22;19390;51.460;5.710;2024-02-26T00:33:17;6.40;99.90
33023;DHT22;19390;51.460;5.710;2024-02-26T00:35:42;6.40;99.90
33023;DHT22;19390;51.460;5.710;2024-02-26T00:38:08;6.40;99.90
33023;DHT22;19390;51.460;5.710;2024-02-26T00:40:34;6.40;99.90
33023;DHT22;19390;51.460;5.710;2024-02-26T00:43:00;6.40;99.90
33023;DHT22;19390;51.460;5.710;2024-02-26T00:45:25;6.40;99.90
33023;DHT22;19390;51.460;5.710;2024-02-26T00:47:51;6.40;99.90
33023;DHT22;19390;51.460;5.710;2024-02-26T00:50:16;6.40;99.90
33023;DHT22;19390;51.460;5.710;2024-02-26T00:52:42;6.50;99.90
33023;DHT22;19390;51.460;5.710;2024-02-26T00:55:08;6.40;99.90
33023;DHT22;19390;51.460;5.710;2024-02-26T00:57:34;6.40;99.90
33023;DHT22;19390;51.460;5.710;2024-02-26T01:00:00;6.40;99.90
33023;DHT22;19390;51.460;5.710;2024-02-26T01:02:26;6.40;99.90
33023;DHT22;19390;51.460;5.710;2024-02-26T01:04:52;6.40;99.90
33023;DHT22;19390;51.460;5.710;2024-02-26T01:07:18;6.40;99.90
33023;DHT22;19390;51.460;5.710;2024-02-26T01:09:44;6.40;99.90
33023;DHT22;19390;51.460;5.710;2024-02-26T01:12:09;6.30;99.90
33023;DHT22;19390;51.460;5.710;2024-02-26T01:14:35;6.30;99.90
33023;DHT22;19390;51.460;5.710;2024-02-26T01:17:00;6.30;99.90
33023;DHT22;19390;51.460;5.710;2024-02-26T01:19:26;6.30;99.90
33023;DHT22;19390;51.460;5.710;2024-02-26T01:21:53;6.20;99.90
33023;DHT22;19390;51.460;5.710;2024-02-26T01:24:18;6.20;99.90
33023;DHT22;19390;51.460;5.710;2024-02-26T01:26:44;6.20;99.90
33023;DHT22;19390;51.460;5.710;2024-02-26T01:29:10;6.20;99.90
33023;DHT22;19390;51.460;5.710;2024-02-26T01:31:35;6.20;99.90
33023;DHT22;19390;51.460;5.710;2024-02-26T01:34:01;6.20;99.90
33023;DHT22;19390;51.460;5.710;2024-02-26T01:36:27;6.10;99.90
33023;DHT22;19390;51.460;5.710;2024-02-26T01:38:52;6.10;99.90
33023;DHT22;19390;51.460;5.710;2024-02-26T01:41:18;6.10;99.90
33023;DHT22;19390;51.460;5.710;2024-02-26T01:43:44;6.10;99.90
33023;DHT22;19390;51.460;5.710;2024-02-26T01:46:13;6.10;99.90
33023;DHT22;19390;51.460;5.710;2024-02-26T01:48:42;6.10;99.90
33023;DHT22;19390;51.460;5.710;2024-02-26T01:51:09;6.00;99.90
33023;DHT22;19390;51.460;5.710;2024-02-26T01:53:35;6.00;99.90
33023;DHT22;19390;51.460;5.710;2024-02-26T01:56:01;6.00;99.90
33023;DHT22;19390;51.460;5.710;2024-02-26T01:58:28;6.00;99.90
33023;DHT22;19390;51.460;5.710;2024-02-26T02:00:55;6.00;99.90
33023;DHT22;19390;51.460;5.710;2024-02-26T02:03:22;6.00;99.90
33023;DHT22;19390;51.460;5.710;2024-02-26T02:05:47;5.90;99.90
33023;DHT22;19390;51.460;5.710;2024-02-26T02:08:13;5.90;99.90
33023;DHT22;19390;51.460;5.710;2024-02-26T02:10:40;6.00;99.90
33023;DHT22;19390;51.460;5.710;2024-02-26T02:13:07;6.00;99.90
33023;DHT22;19390;51.460;5.710;2024-02-26T02:15:32;5.90;99.90
33023;DHT22;19390;51.460;5.710;2024-02-26T02:17:58;5.90;99.90
33023;DHT22;19390;51.460;5.710;2024-02-26T02:20:35;5.90;99.90
33023;DHT22;19390;51.460;5.710;2024-02-26T02:23:01;5.90;99.90
33023;DHT22;19390;51.460;5.710;2024-02-26T02:25:27;5.90;99.90
33023;DHT22;19390;51.460;5.710;2024-02-26T02:27:54;5.80;99.90
33023;DHT22;19390;51.460;5.710;2024-02-26T02:30:26;5.80;99.90
33023;DHT22;19390;51.460;5.710;2024-02-26T02:32:53;5.80;99.90
33023;DHT22;19390;51.460;5.710;2024-02-26T02:35:19;5.80;99.90
33023;DHT22;19390;51.460;5.710;2024-02-26T02:37:44;5.70;99.90
33023;DHT22;19390;51.460;5.710;2024-02-26T02:40:10;5.70;99.90
33023;DHT22;19390;51.460;5.710;2024-02-26T02:42:36;5.70;99.90
33023;DHT22;19390;51.460;5.710;2024-02-26T02:45:01;5.70;99.90
33023;DHT22;19390;51.460;5.710;2024-02-26T02:47:27;5.60;99.90
33023;DHT22;19390;51.460;5.710;2024-02-26T02:49:52;5.70;99.90
33023;DHT22;19390;51.460;5.710;2024-02-26T02:52:18;5.60;99.90
33023;DHT22;19390;51.460;5.710;2024-02-26T02:54:44;5.60;99.90
33023;DHT22;19390;51.460;5.710;2024-02-26T02:57:09;5.70;99.90
33023;DHT22;19390;51.460;5.710;2024-02-26T02:59:36;5.60;99.90
33023;DHT22;19390;51.460;5.710;2024-02-26T03:02:02;5.60;99.90
33023;DHT22;19390;51.460;5.710;2024-02-26T03:04:27;5.60;99.90
33023;DHT22;19390;51.460;5.710;2024-02-26T03:06:55;5.60;99.90
33023;DHT22;19390;51.460;5.710;2024-02-26T03:09:20;5.60;99.90
33023;DHT22;19390;51.460;5.710;2024-02-26T03:11:46;5.50;99.90
33023;DHT22;19390;51.460;5.710;2024-02-26T03:14:11;5.60;99.90
33023;DHT22;19390;51.460;5.710;2024-02-26T03:16:37;5.60;99.90
33023;DHT22;19390;51.460;5.710;2024-02-26T03:19:03;5.50;99.90
33023;DHT22;19390;51.460;5.710;2024-02-26T03:21:28;5.50;99.90
33023;DHT22;19390;51.460;5.710;2024-02-26T03:23:54;5.50;99.90
33023;DHT22;19390;51.460;5.710;2024-02-26T03:26:20;5.50;99.90
33023;DHT22;19390;51.460;5.710;2024-02-26T03:28:47;5.50;99.90
33023;DHT22;19390;51.460;5.710;2024-02-26T03:31:12;5.50;99.90
33023;DHT22;19390;51.460;5.710;2024-02-26T03:33:38;5.50;99.90
33023;DHT22;19390;51.460;5.710;2024-02-26T03:36:04;5.50;99.90
33023;DHT22;19390;51.460;5.710;2024-02-26T03:38:30;5.50;99.90
33023;DHT22;19390;51.460;5.710;2024-02-26T03:40:55;5.40;99.90
33023;DHT22;19390;51.460;5.710;2024-02-26T03:43:21;5.50;99.90
33023;DHT22;19390;51.460;5.710;2024-02-26T03:45:47;5.50;99.90
33023;DHT22;19390;51.460;5.710;2024-02-26T03:48:12;5.50;99.90
33023;DHT22;19390;51.460;5.710;2024-02-26T03:50:38;5.40;99.90
33023;DHT22;19390;51.460;5.710;2024-02-26T03:53:04;5.40;99.90
33023;DHT22;19390;51.460;5.710;2024-02-26T03:55:30;5.50;99.90
33023;DHT22;19390;51.460;5.710;2024-02-26T03:57:55;5.50;99.90
33023;DHT22;19390;51.460;5.710;2024-02-26T04:00:21;5.40;99.90
33023;DHT22;19390;51.460;5.710;2024-02-26T04:02:47;5.40;99.90
33023;DHT22;19390;51.460;5.710;2024-02-26T04:05:13;5.40;99.90
33023;DHT22;19390;51.460;5.710;2024-02-26T04:07:40;5.40;99.90
33023;DHT22;19390;51.460;5.710;2024-02-26T04:10:10;5.40;99.90
33023;DHT22;19390;51.460;5.710;2024-02-26T04:12:37;5.40;99.90
33023;DHT22;19390;51.460;5.710;2024-02-26T04:15:03;5.40;99.90
33023;DHT22;19390;51.460;5.710;2024-02-26T04:17:29;5.40;99.90
33023;DHT22;19390;51.460;5.710;2024-02-26T04:19:55;5.40;99.90
33023;DHT22;19390;51.460;5.710;2024-02-26T04:22:20;5.40;99.90
33023;DHT22;19390;51.460;5.710;2024-02-26T04:24:46;5.40;99.90
33023;DHT22;19390;51.460;5.710;2024-02-26T04:27:12;5.40;99.90
33023;DHT22;19390;51.460;5.710;2024-02-26T04:29:37;5.40;99.90
33023;DHT22;19390;51.460;5.710;2024-02-26T04:32:03;5.40;99.90
33023;DHT22;19390;51.460;5.710;2024-02-26T04:34:29;5.40;99.90
33023;DHT22;19390;51.460;5.710;2024-02-26T04:36:55;5.30;99.90
33023;DHT22;19390;51.460;5.710;2024-02-26T04:39:20;5.30;99.90
33023;DHT22;19390;51.460;5.710;2024-02-26T04:41:46;5.30;99.90
33023;DHT22;19390;51.460;5.710;2024-02-26T04:44:11;5.30;99.90
33023;DHT22;19390;51.460;5.710;2024-02-26T04:46:37;5.30;99.90
33023;DHT22;19390;51.460;5.710;2024-02-26T04:49:03;5.30;99.90
33023;DHT22;19390;51.460;5.710;2024-02-26T04:51:28;5.30;99.90
33023;DHT22;19390;51.460;5.710;2024-02-26T04:53:54;5.30;99.90
33023;DHT22;19390;51.460;5.710;2024-02-26T04:56:21;5.30;99.90
33023;DHT22;19390;51.460;5.710;2024-02-26T04:58:47;5.30;99.90
33023;DHT22;19390;51.460;5.710;2024-02-26T05:01:13;5.30;99.90
33023;DHT22;19390;51.460;5.710;2024-02-26T05:03:38;5.30;99.90
33023;DHT22;19390;51.460;5.710;2024-02-26T05:06:05;5.30;99.90
33023;DHT22;19390;51.460;5.710;2024-02-26T05:08:30;5.30;99.90
33023;DHT22;19390;51.460;5.710;2024-02-26T05:10:56;5.30;99.90
33023;DHT22;19390;51.460;5.710;2024-02-26T05:13:22;5.30;99.90
33023;DHT22;19390;51.460;5.710;2024-02-26T05:15:48;5.30;99.90
33023;DHT22;19390;51.460;5.710;2024-02-26T05:18:15;5.30;99.90
33023;DHT22;19390;51.460;5.710;2024-02-26T05:20:40;5.30;99.90
33023;DHT22;19390;51.460;5.710;2024-02-26T05:23:06;5.30;99.90
33023;DHT22;19390;51.460;5.710;2024-02-26T05:25:32;5.30;99.90
33023;DHT22;19390;51.460;5.710;2024-02-26T05:27:57;5.30;99.90
33023;DHT22;19390;51.460;5.710;2024-02-26T05:30:23;5.30;99.90
33023;DHT22;19390;51.460;5.710;2024-02-26T05:32:49;5.30;99.90
33023;DHT22;19390;51.460;5.710;2024-02-26T05:35:14;5.30;99.90
33023;DHT22;19390;51.460;5.710;2024-02-26T05:37:40;5.30;99.90
33023;DHT22;19390;51.460;5.710;2024-02-26T05:40:06;5.30;99.90
33023;DHT22;19390;51.460;5.710;2024-02-26T05:42:32;5.30;99.90
33023;DHT22;19390;51.460;5.710;2024-02-26T05:44:58;5.30;99.90
33023;DHT22;19390;51.460;5.710;2024-02-26T05:47:24;5.30;99.90
33023;DHT22;19390;51.460;5.710;2024-02-26T05:49:50;5.30;99.90
33023;DHT22;19390;51.460;5.710;2024-02-26T05:52:15;5.30;99.90
33023;DHT22;19390;51.460;5.710;2024-02-26T05:54:41;5.40;99.90
33023;DHT22;19390;51.460;5.710;2024-02-26T05:57:06;5.30;99.90
33023;DHT22;19390;51.460;5.710;2024-02-26T05:59:32;5.40;99.90
33023;DHT22;19390;51.460;5.710;2024-02-26T06:01:57;5.30;99.90
33023;DHT22;19390;51.460;5.710;2024-02-26T06:04:23;5.40;99.90
33023;DHT22;19390;51.460;5.710;2024-02-26T06:06:48;5.30;99.90
33023;DHT22;19390;51.460;5.710;2024-02-26T06:09:15;5.30;99.90
33023;DHT22;19390;51.460;5.710;2024-02-26T06:11:40;5.30;99.90
33023;DHT22;19390;51.460;5.710;2024-02-26T06:14:06;5.20;99.90
33023;DHT22;19390;51.460;5.710;2024-02-26T06:16:31;5.10;99.90
33023;DHT22;19390;51.460;5.710;2024-02-26T06:18:58;5.10;99.90
33023;DHT22;19390;51.460;5.710;2024-02-26T06:21:25;5.10;99.90
33023;DHT22;19390;51.460;5.710;2024-02-26T06:23:51;5.10;99.90
33023;DHT22;19390;51.460;5.710;2024-02-26T06:26:17;5.10;99.90
33023;DHT22;19390;51.460;5.710;2024-02-26T06:28:42;5.10;99.90
33023;DHT22;19390;51.460;5.710;2024-02-26T06:31:08;5.00;99.90
33023;DHT22;19390;51.460;5.710;2024-02-26T06:33:34;5.10;99.90
33023;DHT22;19390;51.460;5.710;2024-02-26T06:35:59;5.00;99.90
33023;DHT22;19390;51.460;5.710;2024-02-26T06:38:25;5.10;99.90
33023;DHT22;19390;51.460;5.710;2024-02-26T06:40:51;5.00;99.90
33023;DHT22;19390;51.460;5.710;2024-02-26T06:43:16;5.00;99.90
33023;DHT22;19390;51.460;5.710;2024-02-26T06:45:42;5.10;99.90
33023;DHT22;19390;51.460;5.710;2024-02-26T06:48:07;5.00;99.90
33023;DHT22;19390;51.460;5.710;2024-02-26T06:50:33;5.00;99.90
33023;DHT22;19390;51.460;5.710;2024-02-26T06:52:58;4.90;99.90
33023;DHT22;19390;51.460;5.710;2024-02-26T06:55:24;4.90;99.90
33023;DHT22;19390;51.460;5.710;2024-02-26T06:57:50;5.00;99.90
33023;DHT22;19390;51.460;5.710;2024-02-26T07:00:15;5.00;99.90
33023;DHT22;19390;51.460;5.710;2024-02-26T07:02:42;4.90;99.90
33023;DHT22;19390;51.460;5.710;2024-02-26T07:05:08;5.00;99.90
33023;DHT22;19390;51.460;5.710;2024-02-26T07:07:34;5.00;99.90
33023;DHT22;19390;51.460;5.710;2024-02-26T07:10:00;4.90;99.90
33023;DHT22;19390;51.460;5.710;2024-02-26T07:12:31;5.00;99.90
33023;DHT22;19390;51.460;5.710;2024-02-26T07:14:57;5.00;99.90
33023;DHT22;19390;51.460;5.710;2024-02-26T07:17:23;5.00;99.90
33023;DHT22;19390;51.460;5.710;2024-02-26T07:19:49;5.00;99.90
33023;DHT22;19390;51.460;5.710;2024-02-26T07:22:15;5.00;99.90
33023;DHT22;19390;51.460;5.710;2024-02-26T07:24:41;5.00;99.90
33023;DHT22;19390;51.460;5.710;2024-02-26T07:27:06;4.90;99.90
33023;DHT22;19390;51.460;5.710;2024-02-26T07:29:32;5.00;99.90
33023;DHT22;19390;51.460;5.710;2024-02-26T07:31:58;5.00;99.90
33023;DHT22;19390;51.460;5.710;2024-02-26T07:34:23;5.00;99.90
33023;DHT22;19390;51.460;5.710;2024-02-26T07:36:53;5.00;99.90
33023;DHT22;19390;51.460;5.710;2024-02-26T07:39:19;5.10;99.90
33023;DHT22;19390;51.460;5.710;2024-02-26T07:41:45;5.00;99.90
33023;DHT22;19390;51.460;5.710;2024-02-26T07:44:13;5.00;99.90
33023;DHT22;19390;51.460;5.710;2024-02-26T07:46:39;5.10;99.90
33023;DHT22;19390;51.460;5.710;2024-02-26T07:49:04;5.10;99.90
33023;DHT22;19390;51.460;5.710;2024-02-26T07:51:30;5.10;99.90
33023;DHT22;19390;51.460;5.710;2024-02-26T07:53:55;5.10;99.90
33023;DHT22;19390;51.460;5.710;2024-02-26T07:56:21;5.10;99.90
33023;DHT22;19390;51.460;5.710;2024-02-26T07:58:47;5.10;99.90
33023;DHT22;19390;51.460;5.710;2024-02-26T08:01:15;5.10;99.90
33023;DHT22;19390;51.460;5.710;2024-02-26T08:03:41;5.10;99.90
33023;DHT22;19390;51.460;5.710;2024-02-26T08:06:08;5.20;99.90
33023;DHT22;19390;51.460;5.710;2024-02-26T08:08:34;5.20;99.90
33023;DHT22;19390;51.460;5.710;2024-02-26T08:10:59;5.20;99.90
33023;DHT22;19390;51.460;5.710;2024-02-26T08:13:25;5.20;99.90
33023;DHT22;19390;51.460;5.710;2024-02-26T08:15:51;5.20;99.90
33023;DHT22;19390;51.460;5.710;2024-02-26T08:18:17;5.30;99.90
33023;DHT22;19390;51.460;5.710;2024-02-26T08:20:43;5.30;99.90
33023;DHT22;19390;51.460;5.710;2024-02-26T08:23:09;5.20;99.90
33023;DHT22;19390;51.460;5.710;2024-02-26T08:25:34;5.30;99.90
33023;DHT22;19390;51.460;5.710;2024-02-26T08:28:00;5.30;99.90
33023;DHT22;19390;51.460;5.710;2024-02-26T08:30:26;5.20;99.90
33023;DHT22;19390;51.460;5.710;2024-02-26T08:32:51;5.20;99.90
33023;DHT22;19390;51.460;5.710;2024-02-26T08:35:17;5.20;99.90
33023;DHT22;19390;51.460;5.710;2024-02-26T08:37:47;5.20;99.90
33023;DHT22;19390;51.460;5.710;2024-02-26T08:40:13;5.20;99.90
33023;DHT22;19390;51.460;5.710;2024-02-26T08:42:39;5.20;99.90
33023;DHT22;19390;51.460;5.710;2024-02-26T08:45:05;5.20;99.90
33023;DHT22;19390;51.460;5.710;2024-02-26T08:47:31;5.20;99.90
33023;DHT22;19390;51.460;5.710;2024-02-26T08:49:56;5.20;99.90
33023;DHT22;19390;51.460;5.710;2024-02-26T08:52:22;5.20;99.90
33023;DHT22;19390;51.460;5.710;2024-02-26T08:54:48;5.20;99.90
33023;DHT22;19390;51.460;5.710;2024-02-26T08:57:15;5.10;99.90
33023;DHT22;19390;51.460;5.710;2024-02-26T08:59:40;5.10;99.90
33023;DHT22;19390;51.460;5.710;2024-02-26T09:02:08;5.10;99.90
33023;DHT22;19390;51.460;5.710;2024-02-26T09:04:36;5.20;99.90
33023;DHT22;19390;51.460;5.710;2024-02-26T09:07:02;5.10;99.90
33023;DHT22;19390;51.460;5.710;2024-02-26T09:09:28;5.20;99.90
33023;DHT22;19390;51.460;5.710;2024-02-26T09:11:53;5.20;99.90
33023;DHT22;19390;51.460;5.710;2024-02-26T09:14:21;5.20;99.90
33023;DHT22;19390;51.460;5.710;2024-02-26T09:16:46;5.10;99.90
33023;DHT22;19390;51.460;5.710;2024-02-26T09:19:14;5.20;99.90
33023;DHT22;19390;51.460;5.710;2024-02-26T09:21:46;5.20;99.90
33023;DHT22;19390;51.460;5.710;2024-02-26T09:24:12;5.20;99.90
33023;DHT22;19390;51.460;5.710;2024-02-26T09:26:38;5.20;99.90
33023;DHT22;19390;51.460;5.710;2024-02-26T09:29:04;5.20;99.90
33023;DHT22;19390;51.460;5.710;2024-02-26T09:31:30;5.10;99.90
33023;DHT22;19390;51.460;5.710;2024-02-26T09:33:56;5.10;99.90
33023;DHT22;19390;51.460;5.710;2024-02-26T09:36:21;5.20;99.90
33023;DHT22;19390;51.460;5.710;2024-02-26T09:38:47;5.10;99.90
33023;DHT22;19390;51.460;5.710;2024-02-26T09:41:14;5.20;99.90
33023;DHT22;19390;51.460;5.710;2024-02-26T09:43:45;5.20;99.90
33023;DHT22;19390;51.460;5.710;2024-02-26T09:46:13;5.20;99.90
33023;DHT22;19390;51.460;5.710;2024-02-26T09:48:42;5.30;99.90
33023;DHT22;19390;51.460;5.710;2024-02-26T09:51:10;5.20;99.90
33023;DHT22;19390;51.460;5.710;2024-02-26T09:53:38;5.20;99.90
33023;DHT22;19390;51.460;5.710;2024-02-26T09:56:08;5.20;99.90
33023;DHT22;19390;51.460;5.710;2024-02-26T09:58:34;5.20;99.90
33023;DHT22;19390;51.460;5.710;2024-02-26T10:01:02;5.20;99.90
33023;DHT22;19390;51.460;5.710;2024-02-26T10:03:31;5.20;99.90
33023;DHT22;19390;51.460;5.710;2024-02-26T10:06:00;5.20;99.90
33023;DHT22;19390;51.460;5.710;2024-02-26T10:08:28;5.30;99.90
33023;DHT22;19390;51.460;5.710;2024-02-26T10:10:55;5.30;99.90
33023;DHT22;19390;51.460;5.710;2024-02-26T10:13:21;5.30;99.90
33023;DHT22;19390;51.460;5.710;2024-02-26T10:15:48;5.30;99.90
33023;DHT22;19390;51.460;5.710;2024-02-26T10:18:14;5.30;99.90
33023;DHT22;19390;51.460;5.710;2024-02-26T10:20:39;5.30;99.90
33023;DHT22;19390;51.460;5.710;2024-02-26T10:23:05;5.30;99.90
33023;DHT22;19390;51.460;5.710;2024-02-26T10:25:31;5.40;99.90
33023;DHT22;19390;51.460;5.710;2024-02-26T10:28:01;5.40;99.90
33023;DHT22;19390;51.460;5.710;2024-02-26T10:30:30;5.30;99.90
33023;DHT22;19390;51.460;5.710;2024-02-26T10:32:56;5.30;99.90
33023;DHT22;19390;51.460;5.710;2024-02-26T10:35:22;5.30;99.90
33023;DHT22;19390;51.460;5.710;2024-02-26T10:37:48;5.30;99.90
33023;DHT22;19390;51.460;5.710;2024-02-26T10:40:14;5.30;99.90
33023;DHT22;19390;51.460;5.710;2024-02-26T10:42:41;5.30;99.90
33023;DHT22;19390;51.460;5.710;2024-02-26T10:45:08;5.30;99.90
33023;DHT22;19390;51.460;5.710;2024-02-26T10:47:37;5.40;99.90
33023;DHT22;19390;51.460;5.710;2024-02-26T10:50:05;5.30;99.90
33023;DHT22;19390;51.460;5.710;2024-02-26T10:52:35;5.30;99.90
33023;DHT22;19390;51.460;5.710;2024-02-26T10:55:02;5.30;99.90
33023;DHT22;19390;51.460;5.710;2024-02-26T10:57:38;5.40;99.90
33023;DHT22;19390;51.460;5.710;2024-02-26T11:00:05;5.30;99.90
33023;DHT22;19390;51.460;5.710;2024-02-26T11:02:35;5.30;99.90
33023;DHT22;19390;51.460;5.710;2024-02-26T11:05:05;5.30;99.90
33023;DHT22;19390;51.460;5.710;2024-02-26T11:07:32;5.30;99.90
33023;DHT22;19390;51.460;5.710;2024-02-26T11:10:05;5.30;99.90
33023;DHT22;19390;51.460;5.710;2024-02-26T11:12:35;5.30;99.90
33023;DHT22;19390;51.460;5.710;2024-02-26T11:15:04;5.40;99.90
33023;DHT22;19390;51.460;5.710;2024-02-26T11:17:30;5.40;99.90
33023;DHT22;19390;51.460;5.710;2024-02-26T11:19:58;5.40;99.90
33023;DHT22;19390;51.460;5.710;2024-02-26T11:22:27;5.40;99.90
33023;DHT22;19390;51.460;5.710;2024-02-26T11:24:56;5.50;99.90
33023;DHT22;19390;51.460;5.710;2024-02-26T11:27:30;5.40;99.90
33023;DHT22;19390;51.460;5.710;2024-02-26T11:29:56;5.40;99.90
33023;DHT22;19390;51.460;5.710;2024-02-26T11:32:23;5.40;99.90
33023;DHT22;19390;51.460;5.710;2024-02-26T11:34:49;5.40;99.90
33023;DHT22;19390;51.460;5.710;2024-02-26T11:37:16;5.50;99.90
33023;DHT22;19390;51.460;5.710;2024-02-26T11:39:43;5.50;99.90
33023;DHT22;19390;51.460;5.710;2024-02-26T11:42:14;5.50;99.90
33023;DHT22;19390;51.460;5.710;2024-02-26T11:44:40;5.60;99.90
33023;DHT22;19390;51.460;5.710;2024-02-26T11:47:20;5.60;99.90
33023;DHT22;19390;51.460;5.710;2024-02-26T11:49:46;5.60;99.90
33023;DHT22;19390;51.460;5.710;2024-02-26T11:52:13;5.50;99.90
33023;DHT22;19390;51.460;5.710;2024-02-26T11:54:49;5.50;99.90
33023;DHT22;19390;51.460;5.710;2024-02-26T11:57:37;5.60;99.90
33023;DHT22;19390;51.460;5.710;2024-02-26T12:02:38;5.60;99.90
33023;DHT22;19390;51.460;5.710;2024-02-26T12:07:46;5.60;99.90
33023;DHT22;19390;51.460;5.710;2024-02-26T12:10:27;5.60;99.90
33023;DHT22;19390;51.460;5.710;2024-02-26T12:13:13;5.60;99.90
33023;DHT22;19390;51.460;5.710;2024-02-26T12:15:56;5.50;99.90
33023;DHT22;19390;51.460;5.710;2024-02-26T12:18:23;5.50;99.90
33023;DHT22;19390;51.460;5.710;2024-02-26T12:21:02;5.70;99.90
33023;DHT22;19390;51.460;5.710;2024-02-26T12:23:27;5.60;99.90
33023;DHT22;19390;51.460;5.710;2024-02-26T12:25:58;5.60;99.90
33023;DHT22;19390;51.460;5.710;2024-02-26T12:28:27;5.60;99.90
33023;DHT22;19390;51.460;5.710;2024-02-26T12:30:52;5.70;99.90
33023;DHT22;19390;51.460;5.710;2024-02-26T12:33:18;5.60;99.90
33023;DHT22;19390;51.460;5.710;2024-02-26T12:35:44;5.60;99.90
33023;DHT22;19390;51.460;5.710;2024-02-26T12:38:14;5.60;99.90
33023;DHT22;19390;51.460;5.710;2024-02-26T12:40:40;5.60;99.90
33023;DHT22;19390;51.460;5.710;2024-02-26T12:43:06;5.60;99.90
33023;DHT22;19390;51.460;5.710;2024-02-26T12:45:32;5.70;99.90
33023;DHT22;19390;51.460;5.710;2024-02-26T12:47:59;5.70;99.90
33023;DHT22;19390;51.460;5.710;2024-02-26T12:50:25;5.70;99.90
33023;DHT22;19390;51.460;5.710;2024-02-26T12:52:51;5.80;99.90
33023;DHT22;19390;51.460;5.710;2024-02-26T12:55:19;5.70;99.90
33023;DHT22;19390;51.460;5.710;2024-02-26T12:57:46;5.70;99.90
33023;DHT22;19390;51.460;5.710;2024-02-26T13:00:16;5.80;99.90
33023;DHT22;19390;51.460;5.710;2024-02-26T13:02:43;5.70;99.90
33023;DHT22;19390;51.460;5.710;2024-02-26T13:05:11;5.70;99.90
33023;DHT22;19390;51.460;5.710;2024-02-26T13:07:44;5.80;99.90
33023;DHT22;19390;51.460;5.710;2024-02-26T13:10:10;5.80;99.90
33023;DHT22;19390;51.460;5.710;2024-02-26T13:12:46;5.80;99.90
33023;DHT22;19390;51.460;5.710;2024-02-26T13:15:17;5.70;99.90
33023;DHT22;19390;51.460;5.710;2024-02-26T13:17:47;5.70;99.90
33023;DHT22;19390;51.460;5.710;2024-02-26T13:20:24;5.70;99.90
33023;DHT22;19390;51.460;5.710;2024-02-26T13:22:50;5.60;99.90
33023;DHT22;19390;51.460;5.710;2024-02-26T13:25:20;5.60;99.90
33023;DHT22;19390;51.460;5.710;2024-02-26T13:27:46;5.80;99.90
33023;DHT22;19390;51.460;5.710;2024-02-26T13:30:12;5.70;99.90
33023;DHT22;19390;51.460;5.710;2024-02-26T13:32:39;5.90;99.90
33023;DHT22;19390;51.460;5.710;2024-02-26T13:35:09;6.00;99.90
33023;DHT22;19390;51.460;5.710;2024-02-26T13:37:36;5.90;99.90
33023;DHT22;19390;51.460;5.710;2024-02-26T13:40:07;5.80;99.90
33023;DHT22;19390;51.460;5.710;2024-02-26T13:42:34;5.80;99.90
33023;DHT22;19390;51.460;5.710;2024-02-26T13:44:59;5.70;99.90
33023;DHT22;19390;51.460;5.710;2024-02-26T13:47:25;5.60;99.90
33023;DHT22;19390;51.460;5.710;2024-02-26T13:49:51;5.60;99.90
33023;DHT22;19390;51.460;5.710;2024-02-26T13:52:16;5.70;99.90
33023;DHT22;19390;51.460;5.710;2024-02-26T13:54:42;5.60;99.90
33023;DHT22;19390;51.460;5.710;2024-02-26T13:57:08;5.60;99.90
33023;DHT22;19390;51.460;5.710;2024-02-26T14:03:46;5.60;99.90
33023;DHT22;19390;51.460;5.710;2024-02-26T14:06:12;5.60;99.90
33023;DHT22;19390;51.460;5.710;2024-02-26T14:08:38;5.70;99.90
33023;DHT22;19390;51.460;5.710;2024-02-26T14:11:03;5.70;99.90
33023;DHT22;19390;51.460;5.710;2024-02-26T14:13:32;5.70;99.90
33023;DHT22;19390;51.460;5.710;2024-02-26T14:15:58;5.80;99.90
33023;DHT22;19390;51.460;5.710;2024-02-26T14:18:23;5.70;99.90
33023;DHT22;19390;51.460;5.710;2024-02-26T14:20:49;5.80;99.90
33023;DHT22;19390;51.460;5.710;2024-02-26T14:23:15;5.80;99.90
33023;DHT22;19390;51.460;5.710;2024-02-26T14:25:41;5.80;99.90
33023;DHT22;19390;51.460;5.710;2024-02-26T14:31:20;5.90;99.90
33023;DHT22;19390;51.460;5.710;2024-02-26T14:34:23;6.00;99.90
33023;DHT22;19390;51.460;5.710;2024-02-26T14:37:12;6.00;99.90
33023;DHT22;19390;51.460;5.710;2024-02-26T14:39:37;6.00;99.90
33023;DHT22;19390;51.460;5.710;2024-02-26T14:42:04;6.00;99.90
33023;DHT22;19390;51.460;5.710;2024-02-26T14:44:29;6.00;99.90
33023;DHT22;19390;51.460;5.710;2024-02-26T14:46:55;5.90;99.90
33023;DHT22;19390;51.460;5.710;2024-02-26T14:49:21;5.90;99.90
33023;DHT22;19390;51.460;5.710;2024-02-26T14:51:46;5.90;99.90
33023;DHT22;19390;51.460;5.710;2024-02-26T14:54:13;5.90;99.90
33023;DHT22;19390;51.460;5.710;2024-02-26T14:56:38;5.80;99.90
33023;DHT22;19390;51.460;5.710;2024-02-26T14:59:04;5.90;99.90
33023;DHT22;19390;51.460;5.710;2024-02-26T15:01:30;5.90;99.90
33023;DHT22;19390;51.460;5.710;2024-02-26T15:03:56;5.90;99.90
33023;DHT22;19390;51.460;5.710;2024-02-26T15:06:23;6.00;99.90
33023;DHT22;19390;51.460;5.710;2024-02-26T15:08:48;5.90;99.90
33023;DHT22;19390;51.460;5.710;2024-02-26T15:11:14;5.90;99.90
33023;DHT22;19390;51.460;5.710;2024-02-26T15:13:40;5.90;99.90
33023;DHT22;19390;51.460;5.710;2024-02-26T15:16:06;5.90;99.90
33023;DHT22;19390;51.460;5.710;2024-02-26T15:18:32;5.90;99.90
33023;DHT22;19390;51.460;5.710;2024-02-26T15:20:57;5.90;99.90
33023;DHT22;19390;51.460;5.710;2024-02-26T15:23:23;5.90;99.90
33023;DHT22;19390;51.460;5.710;2024-02-26T15:25:49;5.90;99.90
33023;DHT22;19390;51.460;5.710;2024-02-26T15:28:15;5.90;99.90
33023;DHT22;19390;51.460;5.710;2024-02-26T15:30:41;6.00;99.90
33023;DHT22;19390;51.460;5.710;2024-02-26T15:33:07;6.00;99.90
33023;DHT22;19390;51.460;5.710;2024-02-26T15:35:33;6.00;99.90
33023;DHT22;19390;51.460;5.710;2024-02-26T15:37:58;6.00;99.90
33023;DHT22;19390;51.460;5.710;2024-02-26T15:40:24;6.00;99.90
33023;DHT22;19390;51.460;5.710;2024-02-26T15:42:50;6.00;99.90
33023;DHT22;19390;51.460;5.710;2024-02-26T15:45:16;6.00;99.90
33023;DHT22;19390;51.460;5.710;2024-02-26T15:47:42;6.00;99.90
33023;DHT22;19390;51.460;5.710;2024-02-26T15:50:08;6.00;99.90
33023;DHT22;19390;51.460;5.710;2024-02-26T15:52:36;6.00;99.90
33023;DHT22;19390;51.460;5.710;2024-02-26T15:55:01;6.00;99.90